Terminal Aerodrome Forecast
Issued by NWS Pittsburgh, PA

Current Version | Previous Version | Graphics & Text | Print | Product List | Glossary On
Versions: 1 2 3 4 5 6 7 8 9 10 11 12 13 14 15 16 17 18 19 20 21 22 23 24 25 26 27 28 29 30 31 32 33 34 35 36 37 38 39
114
FTUS41 KPBZ 300217 AAB
TAFPIT
TAF AMD
KPIT 300217Z 3002/0106 34005KT P6SM BKN010
     FM301300 14008KT P6SM BKN150
     FM302200 12005KT 3SM -RA OVC035
     FM010000 12005KT 2SM -RA BR OVC020=

USA.gov is the U.S. government's official web portal to all federal, state and local government web resources and services.